55.7°F
Current conditions from King Hill
Updated every 5 minutes
 
  Wednesday October 1, 2014

Station Historical Data
Daily Summary for May 22, 2012 Units:  Both    English   Metric
« Previous Day
Next Day »
Daily Weekly Monthly Yearly Custom
  High: Low: Average:
Temperature: 71.5 °F /  21.9 °C 60.2 °F /  15.7 °C 65.7 °F /  18.7 °C
Dew Point: 63.8 °F /  17.7 °C 58.4 °F /  14.7 °C 61.1 °F /  16.2 °C
Humidity: 96% 73% 85%
Wind Speed: 6.0mph /  9.7km/h - 2.5mph /  4km/h
Wind Gust: 13.0mph /  20.9km/h - -
Wind- - SW
Pressure: 29.95 in /  1014.1 hPa 29.78 in /  1008.4 hPa -
Precipitation: 0.10 in /  2.5 mm    
Historical Graphs
 
 
Tabular Data for May 22, 2012
Time Temperature Dew Point Pressure Wind Wind Speed Wind Gust Humidity Daily Rainfall
00:04 63.3 °F /  17.4 °C 58.4 °F /  14.7 °C 29.95in /  1014.1hPa Calm   1.0mph /  1.6km/h 84% 0.00in /  0mm
00:09 63.3 °F /  17.4 °C 58.7 °F /  14.8 °C 29.95in /  1014.1hPa Calm     85% 0.00in /  0mm
00:14 63.2 °F /  17.3 °C 58.6 °F /  14.8 °C 29.95in /  1014.1hPa Calm     85% 0.00in /  0mm
00:19 63.1 °F /  17.3 °C 58.5 °F /  14.7 °C 29.95in /  1014.1hPa Calm     85% 0.00in /  0mm
00:24 63.0 °F /  17.2 °C 58.7 °F /  14.8 °C 29.95in /  1014.1hPa Calm     86% 0.00in /  0mm
00:29 62.9 °F /  17.2 °C 58.7 °F /  14.8 °C 29.95in /  1014.1hPa Calm     86% 0.00in /  0mm
00:34 62.7 °F /  17.1 °C 58.8 °F /  14.9 °C 29.95in /  1014.1hPa Calm     87% 0.00in /  0mm
00:39 62.6 °F /  17 °C 58.7 °F /  14.8 °C 29.94in /  1013.8hPa Calm     87% 0.00in /  0mm
00:44 62.6 °F /  17 °C 58.7 °F /  14.8 °C 29.94in /  1013.8hPa Calm     87% 0.00in /  0mm
00:49 62.5 °F /  16.9 °C 58.9 °F /  14.9 °C 29.94in /  1013.8hPa Calm     88% 0.00in /  0mm
00:54 62.5 °F /  16.9 °C 58.9 °F /  14.9 °C 29.94in /  1013.8hPa Calm   1.0mph /  1.6km/h 88% 0.01in /  0.3mm
00:59 62.4 °F /  16.9 °C 59.1 °F /  15.1 °C 29.94in /  1013.8hPa Calm   3.0mph /  4.8km/h 89% 0.01in /  0.3mm
01:04 62.4 °F /  16.9 °C 59.1 °F /  15.1 °C 29.94in /  1013.8hPa Calm   3.0mph /  4.8km/h 89% 0.01in /  0.3mm
01:09 62.3 °F /  16.8 °C 59.0 °F /  15 °C 29.94in /  1013.8hPa Calm   2.0mph /  3.2km/h 89% 0.02in /  0.5mm
01:14 62.3 °F /  16.8 °C 59.0 °F /  15 °C 29.93in /  1013.4hPa Calm   2.0mph /  3.2km/h 89% 0.02in /  0.5mm
01:19 62.3 °F /  16.8 °C 59.3 °F /  15.2 °C 29.93in /  1013.4hPa Calm   1.0mph /  1.6km/h 90% 0.02in /  0.5mm
01:24 62.3 °F /  16.8 °C 59.3 °F /  15.2 °C 29.93in /  1013.4hPa Calm   3.0mph /  4.8km/h 90% 0.02in /  0.5mm
01:29 62.3 °F /  16.8 °C 59.3 °F /  15.2 °C 29.93in /  1013.4hPa Calm   3.0mph /  4.8km/h 90% 0.02in /  0.5mm
01:34 62.2 °F /  16.8 °C 59.2 °F /  15.1 °C 29.93in /  1013.4hPa Calm   2.0mph /  3.2km/h 90% 0.02in /  0.5mm
01:39 62.2 °F /  16.8 °C 59.2 °F /  15.1 °C 29.93in /  1013.4hPa Calm   2.0mph /  3.2km/h 90% 0.02in /  0.5mm
01:44 62.1 °F /  16.7 °C 59.1 °F /  15.1 °C 29.93in /  1013.4hPa Calm   1.0mph /  1.6km/h 90% 0.02in /  0.5mm
01:49 62.1 °F /  16.7 °C 59.1 °F /  15.1 °C 29.93in /  1013.4hPa Calm   2.0mph /  3.2km/h 90% 0.02in /  0.5mm
01:54 62.1 °F /  16.7 °C 59.4 °F /  15.2 °C 29.93in /  1013.4hPa Calm   3.0mph /  4.8km/h 91% 0.02in /  0.5mm
01:59 62.1 °F /  16.7 °C 59.4 °F /  15.2 °C 29.93in /  1013.4hPa Calm   3.0mph /  4.8km/h 91% 0.02in /  0.5mm
02:04 62.1 °F /  16.7 °C 59.4 °F /  15.2 °C 29.92in /  1013.1hPa Calm   2.0mph /  3.2km/h 91% 0.02in /  0.5mm
02:09 62.0 °F /  16.7 °C 59.3 °F /  15.2 °C 29.92in /  1013.1hPa SW 1.0mph /  1.6km/h 3.0mph /  4.8km/h 91% 0.02in /  0.5mm
02:14 62.1 °F /  16.7 °C 59.4 °F /  15.2 °C 29.92in /  1013.1hPa Calm   3.0mph /  4.8km/h 91% 0.02in /  0.5mm
02:19 62.1 °F /  16.7 °C 59.4 °F /  15.2 °C 29.92in /  1013.1hPa Calm   3.0mph /  4.8km/h 91% 0.03in /  0.8mm
02:24 62.1 °F /  16.7 °C 59.7 °F /  15.4 °C 29.92in /  1013.1hPa Calm   4.0mph /  6.4km/h 92% 0.03in /  0.8mm
02:29 62.1 °F /  16.7 °C 59.7 °F /  15.4 °C 29.92in /  1013.1hPa Calm   4.0mph /  6.4km/h 92% 0.03in /  0.8mm
02:34 62.2 °F /  16.8 °C 59.8 °F /  15.4 °C 29.92in /  1013.1hPa Calm   3.0mph /  4.8km/h 92% 0.03in /  0.8mm
02:40 62.2 °F /  16.8 °C 59.8 °F /  15.4 °C 29.91in /  1012.8hPa SW 1.0mph /  1.6km/h 4.0mph /  6.4km/h 92% 0.04in /  1mm
02:45 62.2 °F /  16.8 °C 59.8 °F /  15.4 °C 29.91in /  1012.8hPa Calm   4.0mph /  6.4km/h 92% 0.04in /  1mm
02:54 62.2 °F /  16.8 °C 59.8 °F /  15.4 °C 29.91in /  1012.8hPa Calm   5.0mph /  8km/h 92% 0.04in /  1mm
02:59 62.1 °F /  16.7 °C 59.7 °F /  15.4 °C 29.91in /  1012.8hPa SSW 1.0mph /  1.6km/h 3.0mph /  4.8km/h 92% 0.04in /  1mm
03:04 62.2 °F /  16.8 °C 60.2 °F /  15.7 °C 29.91in /  1012.8hPa SSW 1.0mph /  1.6km/h 4.0mph /  6.4km/h 93% 0.04in /  1mm
03:09 62.2 °F /  16.8 °C 60.2 °F /  15.7 °C 29.91in /  1012.8hPa SSW 1.0mph /  1.6km/h 5.0mph /  8km/h 93% 0.04in /  1mm
03:14 62.2 °F /  16.8 °C 60.2 °F /  15.7 °C 29.91in /  1012.8hPa Calm   5.0mph /  8km/h 93% 0.04in /  1mm
03:19 62.1 °F /  16.7 °C 60.1 °F /  15.6 °C 29.91in /  1012.8hPa SSW 1.0mph /  1.6km/h 5.0mph /  8km/h 93% 0.04in /  1mm
03:24 62.1 °F /  16.7 °C 60.1 °F /  15.6 °C 29.91in /  1012.8hPa Calm   5.0mph /  8km/h 93% 0.04in /  1mm
03:30 62.1 °F /  16.7 °C 60.1 °F /  15.6 °C 29.91in /  1012.8hPa Calm   4.0mph /  6.4km/h 93% 0.04in /  1mm
03:39 62.1 °F /  16.7 °C 60.1 °F /  15.6 °C 29.90in /  1012.4hPa Calm     93% 0.04in /  1mm
03:45 62.1 °F /  16.7 °C 60.1 °F /  15.6 °C 29.90in /  1012.4hPa Calm     93% 0.04in /  1mm
03:54 62.0 °F /  16.7 °C 60.0 °F /  15.6 °C 29.90in /  1012.4hPa Calm     93% 0.04in /  1mm
03:59 61.9 °F /  16.6 °C 59.9 °F /  15.5 °C 29.90in /  1012.4hPa Calm     93% 0.04in /  1mm
04:04 61.8 °F /  16.6 °C 59.8 °F /  15.4 °C 29.90in /  1012.4hPa Calm     93% 0.04in /  1mm
04:09 61.7 °F /  16.5 °C 59.7 °F /  15.4 °C 29.90in /  1012.4hPa Calm     93% 0.04in /  1mm
04:14 61.6 °F /  16.4 °C 59.6 °F /  15.3 °C 29.90in /  1012.4hPa Calm     93% 0.04in /  1mm
04:19 61.4 °F /  16.3 °C 59.4 °F /  15.2 °C 29.90in /  1012.4hPa Calm     93% 0.04in /  1mm
04:24 61.4 °F /  16.3 °C 59.4 °F /  15.2 °C 29.90in /  1012.4hPa Calm     93% 0.04in /  1mm
04:29 61.2 °F /  16.2 °C 59.2 °F /  15.1 °C 29.90in /  1012.4hPa Calm     93% 0.04in /  1mm
04:34 61.1 °F /  16.2 °C 59.1 °F /  15.1 °C 29.90in /  1012.4hPa Calm     93% 0.04in /  1mm
04:39 61.0 °F /  16.1 °C 59.0 °F /  15 °C 29.90in /  1012.4hPa Calm     93% 0.04in /  1mm
04:44 60.9 °F /  16.1 °C 58.9 °F /  14.9 °C 29.89in /  1012.1hPa Calm     93% 0.04in /  1mm
04:49 60.8 °F /  16 °C 58.8 °F /  14.9 °C 29.90in /  1012.4hPa Calm     93% 0.04in /  1mm
04:54 60.7 °F /  15.9 °C 58.7 °F /  14.8 °C 29.89in /  1012.1hPa Calm     93% 0.04in /  1mm
04:59 60.6 °F /  15.9 °C 58.6 °F /  14.8 °C 29.89in /  1012.1hPa Calm     93% 0.04in /  1mm
05:04 60.6 °F /  15.9 °C 58.6 °F /  14.8 °C 29.89in /  1012.1hPa Calm     93% 0.05in /  1.3mm
05:09 60.6 °F /  15.9 °C 58.9 °F /  14.9 °C 29.89in /  1012.1hPa Calm     94% 0.05in /  1.3mm
05:14 60.6 °F /  15.9 °C 58.9 °F /  14.9 °C 29.89in /  1012.1hPa Calm     94% 0.05in /  1.3mm
05:19 60.6 °F /  15.9 °C 58.9 °F /  14.9 °C 29.89in /  1012.1hPa Calm     94% 0.05in /  1.3mm
05:25 60.6 °F /  15.9 °C 58.9 °F /  14.9 °C 29.89in /  1012.1hPa Calm     94% 0.05in /  1.3mm
05:34 60.6 °F /  15.9 °C 58.9 °F /  14.9 °C 29.89in /  1012.1hPa Calm     94% 0.05in /  1.3mm
05:39 60.6 °F /  15.9 °C 58.9 °F /  14.9 °C 29.89in /  1012.1hPa Calm     94% 0.05in /  1.3mm
05:44 60.6 °F /  15.9 °C 58.9 °F /  14.9 °C 29.89in /  1012.1hPa Calm     94% 0.05in /  1.3mm
05:49 60.4 °F /  15.8 °C 59.0 °F /  15 °C 29.89in /  1012.1hPa Calm     95% 0.05in /  1.3mm
05:55 60.2 °F /  15.7 °C 58.8 °F /  14.9 °C 29.89in /  1012.1hPa Calm     95% 0.05in /  1.3mm
06:04 60.3 °F /  15.7 °C 58.9 °F /  14.9 °C 29.90in /  1012.4hPa Calm     95% 0.05in /  1.3mm
06:09 60.4 °F /  15.8 °C 59.0 °F /  15 °C 29.90in /  1012.4hPa Calm     95% 0.05in /  1.3mm
06:14 60.5 °F /  15.8 °C 59.1 °F /  15.1 °C 29.90in /  1012.4hPa Calm     95% 0.05in /  1.3mm
06:19 60.6 °F /  15.9 °C 59.2 °F /  15.1 °C 29.90in /  1012.4hPa Calm     95% 0.05in /  1.3mm
06:24 60.8 °F /  16 °C 59.4 °F /  15.2 °C 29.90in /  1012.4hPa Calm     95% 0.05in /  1.3mm
06:29 60.9 °F /  16.1 °C 59.5 °F /  15.3 °C 29.90in /  1012.4hPa Calm     95% 0.05in /  1.3mm
06:40 61.1 °F /  16.2 °C 59.7 °F /  15.4 °C 29.90in /  1012.4hPa Calm     95% 0.05in /  1.3mm
06:50 61.5 °F /  16.4 °C 60.3 °F /  15.7 °C 29.90in /  1012.4hPa Calm     96% 0.05in /  1.3mm
06:55 61.7 °F /  16.5 °C 60.5 °F /  15.8 °C 29.90in /  1012.4hPa Calm     96% 0.05in /  1.3mm
07:04 62.1 °F /  16.7 °C 60.9 °F /  16.1 °C 29.89in /  1012.1hPa Calm     96% 0.05in /  1.3mm
07:09 62.2 °F /  16.8 °C 61.0 °F /  16.1 °C 29.89in /  1012.1hPa Calm     96% 0.05in /  1.3mm
07:14 62.3 °F /  16.8 °C 61.1 °F /  16.2 °C 29.89in /  1012.1hPa Calm   2.0mph /  3.2km/h 96% 0.05in /  1.3mm
07:19 62.4 °F /  16.9 °C 61.2 °F /  16.2 °C 29.89in /  1012.1hPa Calm   4.0mph /  6.4km/h 96% 0.05in /  1.3mm
07:24 62.7 °F /  17.1 °C 61.5 °F /  16.4 °C 29.89in /  1012.1hPa Calm   4.0mph /  6.4km/h 96% 0.05in /  1.3mm
07:29 62.8 °F /  17.1 °C 61.3 °F /  16.3 °C 29.89in /  1012.1hPa SSW 1.0mph /  1.6km/h 5.0mph /  8km/h 95% 0.05in /  1.3mm
07:34 62.9 °F /  17.2 °C 61.4 °F /  16.3 °C 29.89in /  1012.1hPa Calm   5.0mph /  8km/h 95% 0.05in /  1.3mm
07:40 63.0 °F /  17.2 °C 61.5 °F /  16.4 °C 29.89in /  1012.1hPa SSW 1.0mph /  1.6km/h 5.0mph /  8km/h 95% 0.05in /  1.3mm
07:49 63.4 °F /  17.4 °C 61.6 °F /  16.4 °C 29.89in /  1012.1hPa Calm   3.0mph /  4.8km/h 94% 0.05in /  1.3mm
07:54 63.5 °F /  17.5 °C 61.7 °F /  16.5 °C 29.89in /  1012.1hPa Calm   5.0mph /  8km/h 94% 0.05in /  1.3mm
07:59 63.6 °F /  17.6 °C 61.2 °F /  16.2 °C 29.89in /  1012.1hPa Calm   8.0mph /  12.9km/h 92% 0.05in /  1.3mm
08:09 64.2 °F /  17.9 °C 61.5 °F /  16.4 °C 29.89in /  1012.1hPa SW 1.0mph /  1.6km/h 5.0mph /  8km/h 91% 0.05in /  1.3mm
08:14 64.5 °F /  18.1 °C 61.5 °F /  16.4 °C 29.89in /  1012.1hPa Calm   5.0mph /  8km/h 90% 0.05in /  1.3mm
08:19 64.8 °F /  18.2 °C 61.8 °F /  16.6 °C 29.89in /  1012.1hPa Calm   1.0mph /  1.6km/h 90% 0.05in /  1.3mm
08:24 65.1 °F /  18.4 °C 61.8 °F /  16.6 °C 29.89in /  1012.1hPa SSW 1.0mph /  1.6km/h 6.0mph /  9.7km/h 89% 0.05in /  1.3mm
08:29 65.3 °F /  18.5 °C 61.7 °F /  16.5 °C 29.89in /  1012.1hPa Calm   6.0mph /  9.7km/h 88% 0.05in /  1.3mm
08:35 65.6 °F /  18.7 °C 62.0 °F /  16.7 °C 29.90in /  1012.4hPa Calm   6.0mph /  9.7km/h 88% 0.05in /  1.3mm
08:44 66.0 °F /  18.9 °C 62.0 °F /  16.7 °C 29.90in /  1012.4hPa SW 4.0mph /  6.4km/h 7.0mph /  11.3km/h 87% 0.05in /  1.3mm
08:49 66.2 °F /  19 °C 61.9 °F /  16.6 °C 29.90in /  1012.4hPa SSW 2.0mph /  3.2km/h 7.0mph /  11.3km/h 86% 0.05in /  1.3mm
08:54 66.3 °F /  19.1 °C 61.7 °F /  16.5 °C 29.89in /  1012.1hPa Calm   7.0mph /  11.3km/h 85% 0.05in /  1.3mm
08:59 66.4 °F /  19.1 °C 61.8 °F /  16.6 °C 29.90in /  1012.4hPa SSW 2.0mph /  3.2km/h 7.0mph /  11.3km/h 85% 0.05in /  1.3mm
09:05 66.5 °F /  19.2 °C 61.5 °F /  16.4 °C 29.89in /  1012.1hPa SW 4.0mph /  6.4km/h 8.0mph /  12.9km/h 84% 0.05in /  1.3mm
09:14 66.8 °F /  19.3 °C 61.8 °F /  16.6 °C 29.89in /  1012.1hPa SSW 2.0mph /  3.2km/h 7.0mph /  11.3km/h 84% 0.05in /  1.3mm
09:24 67.2 °F /  19.6 °C 61.9 °F /  16.6 °C 29.89in /  1012.1hPa SSW 3.0mph /  4.8km/h 8.0mph /  12.9km/h 83% 0.05in /  1.3mm
09:29 67.6 °F /  19.8 °C 62.6 °F /  17 °C 29.89in /  1012.1hPa SW 1.0mph /  1.6km/h 8.0mph /  12.9km/h 84% 0.05in /  1.3mm
09:35 67.9 °F /  19.9 °C 62.2 °F /  16.8 °C 29.89in /  1012.1hPa SSW 3.0mph /  4.8km/h 9.0mph /  14.5km/h 82% 0.05in /  1.3mm
09:49 68.4 °F /  20.2 °C 62.0 °F /  16.7 °C 29.89in /  1012.1hPa SSW 2.0mph /  3.2km/h 9.0mph /  14.5km/h 80% 0.05in /  1.3mm
09:59 68.4 °F /  20.2 °C 62.0 °F /  16.7 °C 29.89in /  1012.1hPa SW 3.0mph /  4.8km/h 13.0mph /  20.9km/h 80% 0.05in /  1.3mm
10:04 68.6 °F /  20.3 °C 62.2 °F /  16.8 °C 29.89in /  1012.1hPa Calm   10.0mph /  16.1km/h 80% 0.05in /  1.3mm
10:09 68.9 °F /  20.5 °C 62.5 °F /  16.9 °C 29.89in /  1012.1hPa SW 3.0mph /  4.8km/h 9.0mph /  14.5km/h 80% 0.05in /  1.3mm
10:14 69.0 °F /  20.6 °C 62.2 °F /  16.8 °C 29.89in /  1012.1hPa SW 2.0mph /  3.2km/h 9.0mph /  14.5km/h 79% 0.05in /  1.3mm
10:19 69.1 °F /  20.6 °C 62.0 °F /  16.7 °C 29.89in /  1012.1hPa South 3.0mph /  4.8km/h 9.0mph /  14.5km/h 78% 0.05in /  1.3mm
10:24 69.2 °F /  20.7 °C 62.4 °F /  16.9 °C 29.88in /  1011.7hPa SW 1.0mph /  1.6km/h 9.0mph /  14.5km/h 79% 0.05in /  1.3mm
10:29 69.2 °F /  20.7 °C 62.1 °F /  16.7 °C 29.88in /  1011.7hPa WSW 5.0mph /  8km/h 9.0mph /  14.5km/h 78% 0.05in /  1.3mm
10:34 69.1 °F /  20.6 °C 61.6 °F /  16.4 °C 29.88in /  1011.7hPa WSW 3.0mph /  4.8km/h 9.0mph /  14.5km/h 77% 0.05in /  1.3mm
10:39 69.3 °F /  20.7 °C 61.8 °F /  16.6 °C 29.88in /  1011.7hPa SW 3.0mph /  4.8km/h 9.0mph /  14.5km/h 77% 0.05in /  1.3mm
10:44 69.1 °F /  20.6 °C 61.6 °F /  16.4 °C 29.88in /  1011.7hPa SSW 3.0mph /  4.8km/h 11.0mph /  17.7km/h 77% 0.05in /  1.3mm
10:49 69.4 °F /  20.8 °C 62.2 °F /  16.8 °C 29.88in /  1011.7hPa SSW 3.0mph /  4.8km/h 11.0mph /  17.7km/h 78% 0.05in /  1.3mm
10:55 69.4 °F /  20.8 °C 61.5 °F /  16.4 °C 29.88in /  1011.7hPa SSW 5.0mph /  8km/h 12.0mph /  19.3km/h 76% 0.05in /  1.3mm
11:04 68.7 °F /  20.4 °C 61.2 °F /  16.2 °C 29.88in /  1011.7hPa SW 6.0mph /  9.7km/h 13.0mph /  20.9km/h 77% 0.05in /  1.3mm
11:10 68.6 °F /  20.3 °C 61.5 °F /  16.4 °C 29.88in /  1011.7hPa SW 3.0mph /  4.8km/h 11.0mph /  17.7km/h 78% 0.05in /  1.3mm
11:19 68.8 °F /  20.4 °C 62.4 °F /  16.9 °C 29.88in /  1011.7hPa SW 1.0mph /  1.6km/h 8.0mph /  12.9km/h 80% 0.05in /  1.3mm
11:24 69.1 °F /  20.6 °C 62.3 °F /  16.8 °C 29.87in /  1011.4hPa Calm   9.0mph /  14.5km/h 79% 0.05in /  1.3mm
11:29 69.3 °F /  20.7 °C 62.5 °F /  16.9 °C 29.87in /  1011.4hPa Calm   9.0mph /  14.5km/h 79% 0.05in /  1.3mm
11:39 69.0 °F /  20.6 °C 61.5 °F /  16.4 °C 29.87in /  1011.4hPa WSW 4.0mph /  6.4km/h 8.0mph /  12.9km/h 77% 0.05in /  1.3mm
11:49 69.1 °F /  20.6 °C 62.0 °F /  16.7 °C 29.86in /  1011.1hPa SSW 2.0mph /  3.2km/h 8.0mph /  12.9km/h 78% 0.05in /  1.3mm
11:54 69.3 °F /  20.7 °C 62.2 °F /  16.8 °C 29.86in /  1011.1hPa SSW 3.0mph /  4.8km/h 7.0mph /  11.3km/h 78% 0.05in /  1.3mm
11:59 69.4 °F /  20.8 °C 62.2 °F /  16.8 °C 29.86in /  1011.1hPa Calm   7.0mph /  11.3km/h 78% 0.05in /  1.3mm
12:04 69.5 °F /  20.8 °C 62.0 °F /  16.7 °C 29.86in /  1011.1hPa WSW 4.0mph /  6.4km/h 8.0mph /  12.9km/h 77% 0.05in /  1.3mm
12:09 69.4 °F /  20.8 °C 61.1 °F /  16.2 °C 29.86in /  1011.1hPa SW 4.0mph /  6.4km/h 8.0mph /  12.9km/h 75% 0.05in /  1.3mm
12:14 69.4 °F /  20.8 °C 61.9 °F /  16.6 °C 29.86in /  1011.1hPa WSW 4.0mph /  6.4km/h 7.0mph /  11.3km/h 77% 0.05in /  1.3mm
12:19 69.8 °F /  21 °C 62.6 °F /  17 °C 29.86in /  1011.1hPa South 1.0mph /  1.6km/h 6.0mph /  9.7km/h 78% 0.05in /  1.3mm
12:24 70.2 °F /  21.2 °C 62.3 °F /  16.8 °C 29.86in /  1011.1hPa South 2.0mph /  3.2km/h 5.0mph /  8km/h 76% 0.05in /  1.3mm
12:30 70.2 °F /  21.2 °C 61.5 °F /  16.4 °C 29.86in /  1011.1hPa SW 4.0mph /  6.4km/h 6.0mph /  9.7km/h 74% 0.05in /  1.3mm
12:40 70.4 °F /  21.3 °C 62.9 °F /  17.2 °C 29.85in /  1010.7hPa West 1.0mph /  1.6km/h 5.0mph /  8km/h 77% 0.05in /  1.3mm
12:50 70.8 °F /  21.6 °C 62.5 °F /  16.9 °C 29.85in /  1010.7hPa WNW 4.0mph /  6.4km/h 6.0mph /  9.7km/h 75% 0.05in /  1.3mm
12:59 71.0 °F /  21.7 °C 63.1 °F /  17.3 °C 29.85in /  1010.7hPa WNW 2.0mph /  3.2km/h 7.0mph /  11.3km/h 76% 0.05in /  1.3mm
13:04 71.0 °F /  21.7 °C 63.4 °F /  17.4 °C 29.84in /  1010.4hPa WNW 1.0mph /  1.6km/h 7.0mph /  11.3km/h 77% 0.05in /  1.3mm
13:09 71.0 °F /  21.7 °C 62.7 °F /  17.1 °C 29.84in /  1010.4hPa West 3.0mph /  4.8km/h 7.0mph /  11.3km/h 75% 0.05in /  1.3mm
13:14 70.8 °F /  21.6 °C 62.9 °F /  17.2 °C 29.84in /  1010.4hPa WSW 2.0mph /  3.2km/h 8.0mph /  12.9km/h 76% 0.05in /  1.3mm
13:19 70.6 °F /  21.4 °C 61.9 °F /  16.6 °C 29.84in /  1010.4hPa West 4.0mph /  6.4km/h 8.0mph /  12.9km/h 74% 0.05in /  1.3mm
13:25 70.8 °F /  21.6 °C 63.2 °F /  17.3 °C 29.84in /  1010.4hPa Calm   8.0mph /  12.9km/h 77% 0.05in /  1.3mm
13:34 70.9 °F /  21.6 °C 62.6 °F /  17 °C 29.84in /  1010.4hPa West 3.0mph /  4.8km/h 10.0mph /  16.1km/h 75% 0.05in /  1.3mm
13:39 70.7 °F /  21.5 °C 62.8 °F /  17.1 °C 29.83in /  1010hPa SSW 2.0mph /  3.2km/h 10.0mph /  16.1km/h 76% 0.05in /  1.3mm
13:49 70.3 °F /  21.3 °C 62.0 °F /  16.7 °C 29.83in /  1010hPa WSW 2.0mph /  3.2km/h 10.0mph /  16.1km/h 75% 0.05in /  1.3mm
13:54 70.3 °F /  21.3 °C 63.1 °F /  17.3 °C 29.83in /  1010hPa Calm   8.0mph /  12.9km/h 78% 0.05in /  1.3mm
14:00 70.3 °F /  21.3 °C 62.0 °F /  16.7 °C 29.83in /  1010hPa SSW 4.0mph /  6.4km/h 7.0mph /  11.3km/h 75% 0.05in /  1.3mm
14:10 70.3 °F /  21.3 °C 62.8 °F /  17.1 °C 29.83in /  1010hPa SSW 1.0mph /  1.6km/h 8.0mph /  12.9km/h 77% 0.05in /  1.3mm
14:19 70.5 °F /  21.4 °C 63.3 °F /  17.4 °C 29.83in /  1010hPa Calm   6.0mph /  9.7km/h 78% 0.05in /  1.3mm
14:24 70.5 °F /  21.4 °C 62.6 °F /  17 °C 29.83in /  1010hPa SW 4.0mph /  6.4km/h 8.0mph /  12.9km/h 76% 0.05in /  1.3mm
14:29 70.2 °F /  21.2 °C 62.7 °F /  17.1 °C 29.83in /  1010hPa SW 2.0mph /  3.2km/h 9.0mph /  14.5km/h 77% 0.05in /  1.3mm
14:34 70.1 °F /  21.2 °C 62.9 °F /  17.2 °C 29.82in /  1009.7hPa SW 3.0mph /  4.8km/h 10.0mph /  16.1km/h 78% 0.05in /  1.3mm
14:40 69.8 °F /  21 °C 62.6 °F /  17 °C 29.82in /  1009.7hPa SW 3.0mph /  4.8km/h 10.0mph /  16.1km/h 78% 0.05in /  1.3mm
14:49 69.7 °F /  20.9 °C 62.5 °F /  16.9 °C 29.82in /  1009.7hPa WSW 3.0mph /  4.8km/h 7.0mph /  11.3km/h 78% 0.05in /  1.3mm
14:59 69.9 °F /  21.1 °C 62.4 °F /  16.9 °C 29.82in /  1009.7hPa SW 4.0mph /  6.4km/h 7.0mph /  11.3km/h 77% 0.05in /  1.3mm
15:09 69.8 °F /  21 °C 62.6 °F /  17 °C 29.82in /  1009.7hPa SW 2.0mph /  3.2km/h 8.0mph /  12.9km/h 78% 0.05in /  1.3mm
15:14 70.0 °F /  21.1 °C 62.5 °F /  16.9 °C 29.81in /  1009.4hPa South 1.0mph /  1.6km/h 7.0mph /  11.3km/h 77% 0.05in /  1.3mm
15:19 70.1 °F /  21.2 °C 62.6 °F /  17 °C 29.81in /  1009.4hPa WSW 2.0mph /  3.2km/h 8.0mph /  12.9km/h 77% 0.05in /  1.3mm
15:24 70.0 °F /  21.1 °C 62.5 °F /  16.9 °C 29.81in /  1009.4hPa SW 1.0mph /  1.6km/h 8.0mph /  12.9km/h 77% 0.05in /  1.3mm
15:29 70.0 °F /  21.1 °C 62.5 °F /  16.9 °C 29.81in /  1009.4hPa SSW 1.0mph /  1.6km/h 6.0mph /  9.7km/h 77% 0.05in /  1.3mm
15:34 70.1 °F /  21.2 °C 62.9 °F /  17.2 °C 29.81in /  1009.4hPa Calm   6.0mph /  9.7km/h 78% 0.05in /  1.3mm
15:40 70.1 °F /  21.2 °C 62.6 °F /  17 °C 29.81in /  1009.4hPa South 2.0mph /  3.2km/h 6.0mph /  9.7km/h 77% 0.05in /  1.3mm
15:49 70.2 °F /  21.2 °C 63.0 °F /  17.2 °C 29.80in /  1009hPa Calm   5.0mph /  8km/h 78% 0.05in /  1.3mm
15:59 70.1 °F /  21.2 °C 62.9 °F /  17.2 °C 29.80in /  1009hPa Calm   7.0mph /  11.3km/h 78% 0.05in /  1.3mm
16:04 70.2 °F /  21.2 °C 63.0 °F /  17.2 °C 29.80in /  1009hPa Calm   7.0mph /  11.3km/h 78% 0.05in /  1.3mm
16:09 70.4 °F /  21.3 °C 63.2 °F /  17.3 °C 29.80in /  1009hPa Calm   4.0mph /  6.4km/h 78% 0.05in /  1.3mm
16:14 70.4 °F /  21.3 °C 62.9 °F /  17.2 °C 29.80in /  1009hPa Calm   7.0mph /  11.3km/h 77% 0.05in /  1.3mm
16:19 70.6 °F /  21.4 °C 63.4 °F /  17.4 °C 29.80in /  1009hPa Calm   7.0mph /  11.3km/h 78% 0.05in /  1.3mm
16:24 70.6 °F /  21.4 °C 62.7 °F /  17.1 °C 29.80in /  1009hPa South 2.0mph /  3.2km/h 5.0mph /  8km/h 76% 0.05in /  1.3mm
16:30 70.7 °F /  21.5 °C 62.0 °F /  16.7 °C 29.80in /  1009hPa SW 2.0mph /  3.2km/h 6.0mph /  9.7km/h 74% 0.05in /  1.3mm
16:39 70.9 °F /  21.6 °C 62.6 °F /  17 °C 29.79in /  1008.7hPa SSW 2.0mph /  3.2km/h 6.0mph /  9.7km/h 75% 0.05in /  1.3mm
16:44 71.0 °F /  21.7 °C 62.7 °F /  17.1 °C 29.79in /  1008.7hPa SSW 1.0mph /  1.6km/h 5.0mph /  8km/h 75% 0.05in /  1.3mm
16:49 71.1 °F /  21.7 °C 63.2 °F /  17.3 °C 29.79in /  1008.7hPa SSW 3.0mph /  4.8km/h 6.0mph /  9.7km/h 76% 0.05in /  1.3mm
16:54 71.0 °F /  21.7 °C 62.7 °F /  17.1 °C 29.79in /  1008.7hPa SW 2.0mph /  3.2km/h 6.0mph /  9.7km/h 75% 0.05in /  1.3mm
16:59 71.3 °F /  21.8 °C 63.4 °F /  17.4 °C 29.79in /  1008.7hPa SSW 1.0mph /  1.6km/h 6.0mph /  9.7km/h 76% 0.05in /  1.3mm
17:04 71.5 °F /  21.9 °C 63.2 °F /  17.3 °C 29.79in /  1008.7hPa SSE 2.0mph /  3.2km/h 7.0mph /  11.3km/h 75% 0.05in /  1.3mm
17:09 71.4 °F /  21.9 °C 62.3 °F /  16.8 °C 29.79in /  1008.7hPa SSW 1.0mph /  1.6km/h 7.0mph /  11.3km/h 73% 0.05in /  1.3mm
17:14 71.2 °F /  21.8 °C 62.5 °F /  16.9 °C 29.79in /  1008.7hPa Calm   4.0mph /  6.4km/h 74% 0.05in /  1.3mm
17:19 71.0 °F /  21.7 °C 62.3 °F /  16.8 °C 29.79in /  1008.7hPa Calm   1.0mph /  1.6km/h 74% 0.05in /  1.3mm
17:24 70.8 °F /  21.6 °C 62.9 °F /  17.2 °C 29.79in /  1008.7hPa SSW 1.0mph /  1.6km/h 4.0mph /  6.4km/h 76% 0.05in /  1.3mm
17:29 71.1 °F /  21.7 °C 62.8 °F /  17.1 °C 29.79in /  1008.7hPa Calm   4.0mph /  6.4km/h 75% 0.05in /  1.3mm
17:35 71.0 °F /  21.7 °C 61.9 °F /  16.6 °C 29.79in /  1008.7hPa Calm   4.0mph /  6.4km/h 73% 0.05in /  1.3mm
17:44 71.0 °F /  21.7 °C 63.1 °F /  17.3 °C 29.78in /  1008.4hPa Calm   1.0mph /  1.6km/h 76% 0.05in /  1.3mm
17:49 70.9 °F /  21.6 °C 63.0 °F /  17.2 °C 29.78in /  1008.4hPa Calm   1.0mph /  1.6km/h 76% 0.05in /  1.3mm
17:54 70.9 °F /  21.6 °C 62.2 °F /  16.8 °C 29.78in /  1008.4hPa Calm   1.0mph /  1.6km/h 74% 0.05in /  1.3mm
17:59 70.8 °F /  21.6 °C 62.1 °F /  16.7 °C 29.78in /  1008.4hPa Calm     74% 0.05in /  1.3mm
18:04 70.7 °F /  21.5 °C 63.1 °F /  17.3 °C 29.78in /  1008.4hPa Calm     77% 0.05in /  1.3mm
18:09 70.6 °F /  21.4 °C 62.3 °F /  16.8 °C 29.78in /  1008.4hPa Calm   1.0mph /  1.6km/h 75% 0.05in /  1.3mm
18:14 70.7 °F /  21.5 °C 62.8 °F /  17.1 °C 29.78in /  1008.4hPa Calm   1.0mph /  1.6km/h 76% 0.05in /  1.3mm
18:19 70.7 °F /  21.5 °C 62.8 °F /  17.1 °C 29.78in /  1008.4hPa Calm   1.0mph /  1.6km/h 76% 0.05in /  1.3mm
18:24 70.7 °F /  21.5 °C 62.8 °F /  17.1 °C 29.78in /  1008.4hPa Calm   1.0mph /  1.6km/h 76% 0.05in /  1.3mm
18:34 70.7 °F /  21.5 °C 62.8 °F /  17.1 °C 29.78in /  1008.4hPa Calm   1.0mph /  1.6km/h 76% 0.05in /  1.3mm
18:39 70.7 °F /  21.5 °C 63.1 °F /  17.3 °C 29.78in /  1008.4hPa Calm   1.0mph /  1.6km/h 77% 0.05in /  1.3mm
18:44 70.5 °F /  21.4 °C 62.2 °F /  16.8 °C 29.78in /  1008.4hPa Calm   1.0mph /  1.6km/h 75% 0.05in /  1.3mm
18:49 70.4 °F /  21.3 °C 62.5 °F /  16.9 °C 29.78in /  1008.4hPa Calm     76% 0.05in /  1.3mm
18:54 70.3 °F /  21.3 °C 62.8 °F /  17.1 °C 29.78in /  1008.4hPa Calm     77% 0.05in /  1.3mm
18:59 70.3 °F /  21.3 °C 63.8 °F /  17.7 °C 29.78in /  1008.4hPa Calm     80% 0.05in /  1.3mm
19:04 69.9 °F /  21.1 °C 63.5 °F /  17.5 °C 29.78in /  1008.4hPa Calm     80% 0.05in /  1.3mm
19:09 69.5 °F /  20.8 °C 63.4 °F /  17.4 °C 29.78in /  1008.4hPa Calm     81% 0.05in /  1.3mm
19:14 69.1 °F /  20.6 °C 63.4 °F /  17.4 °C 29.79in /  1008.7hPa Calm     82% 0.05in /  1.3mm
19:19 68.7 °F /  20.4 °C 63.0 °F /  17.2 °C 29.79in /  1008.7hPa Calm     82% 0.05in /  1.3mm
19:24 68.4 °F /  20.2 °C 63.0 °F /  17.2 °C 29.79in /  1008.7hPa Calm     83% 0.05in /  1.3mm
19:29 67.9 °F /  19.9 °C 62.6 °F /  17 °C 29.79in /  1008.7hPa Calm     83% 0.05in /  1.3mm
19:35 67.6 °F /  19.8 °C 62.6 °F /  17 °C 29.79in /  1008.7hPa Calm     84% 0.05in /  1.3mm
19:44 67.1 °F /  19.5 °C 62.1 °F /  16.7 °C 29.79in /  1008.7hPa Calm     84% 0.05in /  1.3mm
19:50 66.9 °F /  19.4 °C 62.2 °F /  16.8 °C 29.79in /  1008.7hPa Calm     85% 0.05in /  1.3mm
19:59 66.6 °F /  19.2 °C 61.6 °F /  16.4 °C 29.79in /  1008.7hPa Calm   1.0mph /  1.6km/h 84% 0.05in /  1.3mm
20:05 66.3 °F /  19.1 °C 61.0 °F /  16.1 °C 29.78in /  1008.4hPa Calm   1.0mph /  1.6km/h 83% 0.05in /  1.3mm
20:14 65.9 °F /  18.8 °C 60.3 °F /  15.7 °C 29.79in /  1008.7hPa NW 5.0mph /  8km/h 12.0mph /  19.3km/h 82% 0.05in /  1.3mm
20:19 65.8 °F /  18.8 °C 60.5 °F /  15.8 °C 29.79in /  1008.7hPa NW 6.0mph /  9.7km/h 12.0mph /  19.3km/h 83% 0.05in /  1.3mm
20:24 65.4 °F /  18.6 °C 60.1 °F /  15.6 °C 29.79in /  1008.7hPa WNW 6.0mph /  9.7km/h 13.0mph /  20.9km/h 83% 0.05in /  1.3mm
20:29 64.9 °F /  18.3 °C 60.0 °F /  15.6 °C 29.80in /  1009hPa NW 4.0mph /  6.4km/h 13.0mph /  20.9km/h 84% 0.05in /  1.3mm
20:40 64.2 °F /  17.9 °C 59.9 °F /  15.5 °C 29.79in /  1008.7hPa WNW 1.0mph /  1.6km/h 10.0mph /  16.1km/h 86% 0.05in /  1.3mm
20:49 63.7 °F /  17.6 °C 60.1 °F /  15.6 °C 29.80in /  1009hPa Calm   6.0mph /  9.7km/h 88% 0.07in /  1.8mm
20:54 63.6 °F /  17.6 °C 60.0 °F /  15.6 °C 29.80in /  1009hPa Calm   3.0mph /  4.8km/h 88% 0.08in /  2mm
20:59 63.4 °F /  17.4 °C 60.1 °F /  15.6 °C 29.80in /  1009hPa Calm   3.0mph /  4.8km/h 89% 0.08in /  2mm
21:04 63.3 °F /  17.4 °C 60.3 °F /  15.7 °C 29.80in /  1009hPa Calm   1.0mph /  1.6km/h 90% 0.09in /  2.3mm
21:09 63.3 °F /  17.4 °C 60.3 °F /  15.7 °C 29.80in /  1009hPa Calm     90% 0.10in /  2.5mm
21:14 63.2 °F /  17.3 °C 60.2 °F /  15.7 °C 29.80in /  1009hPa Calm     90% 0.10in /  2.5mm
21:19 63.1 °F /  17.3 °C 60.1 °F /  15.6 °C 29.80in /  1009hPa Calm     90% 0.10in /  2.5mm
21:24 63.1 °F /  17.3 °C 60.1 °F /  15.6 °C 29.80in /  1009hPa Calm     90% 0.10in /  2.5mm
21:30 63.1 °F /  17.3 °C 60.4 °F /  15.8 °C 29.80in /  1009hPa Calm     91% 0.10in /  2.5mm
21:39 62.9 °F /  17.2 °C 60.2 °F /  15.7 °C 29.80in /  1009hPa Calm     91% 0.10in /  2.5mm
21:49 62.8 °F /  17.1 °C 60.4 °F /  15.8 °C 29.80in /  1009hPa Calm   2.0mph /  3.2km/h 92% 0.10in /  2.5mm
21:54 62.8 °F /  17.1 °C 60.4 °F /  15.8 °C 29.80in /  1009hPa Calm   2.0mph /  3.2km/h 92% 0.10in /  2.5mm
22:05 62.9 °F /  17.2 °C 60.5 °F /  15.8 °C 29.80in /  1009hPa Calm   2.0mph /  3.2km/h 92% 0.10in /  2.5mm
22:14 62.9 °F /  17.2 °C 60.8 °F /  16 °C 29.80in /  1009hPa Calm   2.0mph /  3.2km/h 93% 0.10in /  2.5mm
22:19 62.9 °F /  17.2 °C 60.8 °F /  16 °C 29.80in /  1009hPa Calm   2.0mph /  3.2km/h 93% 0.10in /  2.5mm
22:24 62.9 °F /  17.2 °C 60.8 °F /  16 °C 29.80in /  1009hPa Calm   2.0mph /  3.2km/h 93% 0.10in /  2.5mm
22:30 62.9 °F /  17.2 °C 60.8 °F /  16 °C 29.80in /  1009hPa Calm   3.0mph /  4.8km/h 93% 0.10in /  2.5mm
22:39 62.9 °F /  17.2 °C 60.8 °F /  16 °C 29.80in /  1009hPa Calm     93% 0.10in /  2.5mm
22:44 62.8 °F /  17.1 °C 60.7 °F /  15.9 °C 29.80in /  1009hPa Calm     93% 0.10in /  2.5mm
22:49 62.8 °F /  17.1 °C 61.0 °F /  16.1 °C 29.80in /  1009hPa Calm     94% 0.10in /  2.5mm
22:54 62.7 °F /  17.1 °C 60.9 °F /  16.1 °C 29.81in /  1009.4hPa Calm   1.0mph /  1.6km/h 94% 0.10in /  2.5mm
22:59 62.7 °F /  17.1 °C 60.9 °F /  16.1 °C 29.81in /  1009.4hPa ENE 2.0mph /  3.2km/h 3.0mph /  4.8km/h 94% 0.10in /  2.5mm
23:04 62.7 °F /  17.1 °C 60.9 °F /  16.1 °C 29.81in /  1009.4hPa Calm   3.0mph /  4.8km/h 94% 0.10in /  2.5mm
23:09 62.7 °F /  17.1 °C 60.9 °F /  16.1 °C 29.81in /  1009.4hPa Calm   2.0mph /  3.2km/h 94% 0.10in /  2.5mm
23:14 62.7 °F /  17.1 °C 60.9 °F /  16.1 °C 29.81in /  1009.4hPa Calm     94% 0.10in /  2.5mm
23:19 62.6 °F /  17 °C 60.8 °F /  16 °C 29.80in /  1009hPa Calm     94% 0.10in /  2.5mm
23:24 62.6 °F /  17 °C 60.8 °F /  16 °C 29.81in /  1009.4hPa Calm     94% 0.10in /  2.5mm
23:29 62.5 °F /  16.9 °C 60.8 °F /  16 °C 29.81in /  1009.4hPa Calm     94% 0.10in /  2.5mm
23:34 62.5 °F /  16.9 °C 61.0 °F /  16.1 °C 29.81in /  1009.4hPa Calm     95% 0.10in /  2.5mm
23:44 62.5 °F /  16.9 °C 61.0 °F /  16.1 °C 29.81in /  1009.4hPa Calm     95% 0.10in /  2.5mm
23:49 62.5 °F /  16.9 °C 61.0 °F /  16.1 °C 29.81in /  1009.4hPa Calm     95% 0.10in /  2.5mm
23:54 62.5 °F /  16.9 °C 61.0 °F /  16.1 °C 29.81in /  1009.4hPa Calm     95% 0.10in /  2.5mm
23:59 62.4 °F /  16.9 °C 60.9 °F /  16.1 °C 29.81in /  1009.4hPa Calm     95% 0.10in /  2.5mm
Westford Weather
Compliments of Weather Underground

 
 
Current Radar Loop:

Copyright © WestfordWeather.net 2007-2014. All rights reserved.